ADDS METAR Data INFO
IDs: Format: Raw Decoded Include TAF

Data at: 1750 UTC 21 Oct 2017

KI69 211734Z AUTO 21005KT 10SM CLR 22/09 A3026 RMK AO2 T02160091
KI69 211715Z AUTO 23005KT 10SM CLR 22/09 A3026 RMK AO2 T02160091
KI69 211655Z AUTO 22008KT 10SM CLR 22/10 A3027 RMK AO2 T02150099
KI69 211634Z AUTO 23008KT 10SM CLR 21/10 A3027 RMK AO2 T02140096
KI69 211615Z AUTO 21006KT 10SM CLR 22/09 A3027 RMK AO2 T02150093
KI69 211555Z AUTO 23008KT 10SM CLR 21/09 A3027 RMK AO2 T02130085
KI69 211534Z AUTO 19003KT 10SM CLR 21/10 A3028 RMK AO2 T02100095
KI69 211515Z AUTO 21004KT 10SM CLR 20/10 A3028 RMK AO2 T02030102
KI69 211454Z AUTO 22005KT 10SM CLR 20/11 A3027 RMK AO2 T01960108
KI69 211434Z AUTO 11003KT 10SM CLR 17/13 A3027 RMK AO2 T01700132
KI69 211415Z AUTO 11003KT 10SM CLR 15/13 A3027 RMK AO2 T01520127
KI69 211354Z AUTO 00000KT 10SM CLR 14/13 A3027 RMK AO2 T01410126
KI69 211334Z AUTO 00000KT 10SM CLR 14/13 A3027 RMK AO2 T01380125
KI69 211315Z AUTO 00000KT 10SM CLR 12/12 A3027 RMK AO2 T01230118
KI69 211254Z AUTO 00000KT 7SM CLR 11/11 A3026 RMK AO2 T01110108
KI69 211234Z AUTO 00000KT 4SM BR CLR 10/10 A3025 RMK AO2 T01040101
KI69 211215Z AUTO 00000KT 4SM BR CLR 10/10 A3024 RMK AO2 T00980095
KI69 211154Z AUTO 00000KT 3SM BR CLR 09/09 A3024 RMK AO2 T00940090 10131 20092
KI69 211134Z AUTO 00000KT 1/2SM FG BKN003 10/09 A3024 RMK AO2 T00970093
KI69 211115Z AUTO 00000KT 10SM CLR 10/10 A3024 RMK AO2 T01010095
KI69 211054Z AUTO 00000KT 10SM CLR 11/10 A3023 RMK AO2 T01060100
KI69 211034Z AUTO 00000KT 3SM BR CLR 10/10 A3023 RMK AO2 T01010097
KI69 211015Z AUTO 00000KT 5SM BR CLR 10/10 A3022 RMK AO2 T01030098
KI69 210954Z AUTO 00000KT 10SM CLR 12/11 A3021 RMK AO2 T01150108
KI69 210934Z AUTO 00000KT 7SM CLR 11/10 A3021 RMK AO2 T01080102
KI69 210915Z AUTO 00000KT 7SM CLR 11/10 A3021 RMK AO2 T01080104
KI69 210854Z AUTO 00000KT 1 3/4SM BR VV007 11/10 A3021 RMK AO2 VIS 1/2V5 T01050100
KI69 210835Z AUTO 00000KT 10SM CLR 11/11 A3020 RMK AO2 T01110106
KI69 210815Z AUTO 00000KT 10SM CLR 12/11 A3020 RMK AO2 T01200112
KI69 210754Z AUTO 00000KT 10SM CLR 12/11 A3020 RMK AO2 T01190111
KI69 210735Z AUTO 15003KT 10SM CLR 12/11 A3020 RMK AO2 T01210113
KI69 210714Z AUTO 15003KT 10SM CLR 12/11 A3021 RMK AO2 T01210113
KI69 210654Z AUTO 14003KT 10SM CLR 13/12 A3021 RMK AO2 T01250116
KI69 210635Z AUTO 00000KT 10SM CLR 12/12 A3021 RMK AO2 T01210115
KI69 210614Z AUTO 00000KT 10SM CLR 12/11 A3021 RMK AO2 T01180105
KI69 210554Z AUTO 00000KT 10SM CLR 13/11 A3022 RMK AO2 T01270114 10197 20121 402450084
KI69 210535Z AUTO 00000KT 10SM CLR 13/12 A3021 RMK AO2 T01300118
KI69 210514Z AUTO 00000KT 10SM CLR 13/12 A3021 RMK AO2 T01280120
KI69 210455Z AUTO 00000KT 10SM CLR 14/13 A3022 RMK AO2 T01350125
KI69 210435Z AUTO 00000KT 10SM CLR 14/13 A3022 RMK AO2 T01410126
KI69 210414Z AUTO 14003KT 10SM CLR 14/13 A3022 RMK AO2 T01400125
KI69 210355Z AUTO 00000KT 10SM CLR 13/12 A3022 RMK AO2 T01260116
KI69 210335Z AUTO 00000KT 10SM CLR 13/11 A3022 RMK AO2 T01320109
KI69 210314Z AUTO 00000KT 10SM CLR 14/11 A3022 RMK AO2 T01360106
KI69 210255Z AUTO 00000KT 10SM CLR 14/11 A3022 RMK AO2 T01400109
KI69 210234Z AUTO 00000KT 10SM CLR 15/11 A3022 RMK AO2 T01470111
KI69 210214Z AUTO 00000KT 10SM CLR 15/11 A3021 RMK AO2 T01500113
KI69 210155Z AUTO 00000KT 10SM CLR 16/11 A3021 RMK AO2 T01580112
KI69 210134Z AUTO 00000KT 10SM CLR 17/11 A3021 RMK AO2 T01650112
KI69 210115Z AUTO 00000KT 10SM CLR 18/11 A3021 RMK AO2 T01780113
KI69 210055Z AUTO 16003KT 10SM CLR 18/11 A3021 RMK AO2 T01840114
KI69 210034Z AUTO 15003KT 10SM CLR 19/11 A3021 RMK AO2 T01860112
KI69 210015Z AUTO 00000KT 10SM CLR 19/11 A3022 RMK AO2 T01910112
KI69 202355Z AUTO 00000KT 10SM CLR 20/11 A3022 RMK AO2 T01990111 10245 20195
KI69 202334Z AUTO 00000KT 10SM CLR 20/11 A3022 RMK AO2 T01960113
KI69 202315Z AUTO 00000KT 10SM CLR 21/11 A3021 RMK AO2 T02110107
KI69 202255Z AUTO 00000KT 10SM CLR 22/11 A3021 RMK AO2 T02180107
KI69 202234Z AUTO 00000KT 10SM CLR 23/11 A3020 RMK AO2 T02250106
KI69 202215Z AUTO 00000KT 10SM CLR 23/11 A3021 RMK AO2 T02310105
KI69 202155Z AUTO 18003KT 10SM CLR 24/10 A3021 RMK AO2 T02350104
KI69 202134Z AUTO 19003KT 10SM CLR 24/10 A3021 RMK AO2 T02370101
KI69 202115Z AUTO 00000KT 10SM CLR 24/10 A3021 RMK AO2 T02400102
KI69 202054Z AUTO 15003KT 10SM CLR 24/10 A3021 RMK AO2 T02410097
KI69 202034Z AUTO 17005KT 10SM CLR 24/10 A3022 RMK AO2 T02430101
KI69 202015Z AUTO 18004KT 10SM CLR 25/10 A3022 RMK AO2 T02450103
KI69 201954Z AUTO 22005KT 10SM CLR 25/10 A3022 RMK AO2 T02450102
KI69 201934Z AUTO 23003KT 10SM CLR 24/11 A3023 RMK AO2 T02410108
KI69 201915Z AUTO 18005KT 10SM CLR 24/10 A3024 RMK AO2 T02430101
KI69 201854Z AUTO 00000KT 10SM CLR 24/10 A3024 RMK AO2 T02420101
KI69 201834Z AUTO 18004KT 10SM CLR 24/11 A3025 RMK AO2 T02380109
KI69 201815Z AUTO 26003KT 10SM CLR 24/11 A3026 RMK AO2 T02360111
KI69 201754Z AUTO 00000KT 10SM CLR 23/11 A3026 RMK AO2 T02310109 10236 20086
KI69 201734Z AUTO 18004KT 10SM CLR 23/11 A3028 RMK AO2 T02310112
KI69 201715Z AUTO 21006KT 10SM CLR 23/11 A3029 RMK AO2 T02300108
KI69 201654Z AUTO 00000KT 10SM CLR 23/12 A3030 RMK AO2 T02280116
KI69 201634Z AUTO 00000KT 10SM CLR 22/12 A3031 RMK AO2 T02200121
KI69 201615Z AUTO 00000KT 10SM CLR 21/12 A3032 RMK AO2 T02120121
KI69 201554Z AUTO 00000KT 10SM CLR 21/13 A3032 RMK AO2 T02090127
KI69 201534Z AUTO 00000KT 10SM CLR 20/13 A3033 RMK AO2 T02000127
KI69 201515Z AUTO 00000KT 10SM CLR 20/13 A3033 RMK AO2 T01950126
KI69 201454Z AUTO 00000KT 10SM CLR 18/12 A3034 RMK AO2 T01800124
KI69 201434Z AUTO 00000KT 10SM CLR 17/12 A3034 RMK AO2 T01660124
KI69 201415Z AUTO 00000KT 10SM CLR 16/12 A3033 RMK AO2 T01560122
KI69 201354Z AUTO 00000KT 10SM CLR 14/12 A3033 RMK AO2 T01430117
KI69 201334Z AUTO 00000KT 10SM CLR 13/11 A3033 RMK AO2 T01320113
KI69 201315Z AUTO 00000KT 10SM CLR 11/11 A3032 RMK AO2 T01140105
KI69 201254Z AUTO 00000KT 10SM CLR 10/10 A3032 RMK AO2 T01020095
KI69 201234Z AUTO 00000KT 10SM CLR 09/08 A3031 RMK AO2 T00910084
KI69 201215Z AUTO 00000KT 10SM CLR 09/08 A3031 RMK AO2 T00880078
KI69 201154Z AUTO 00000KT 7SM CLR 09/08 A3030 RMK AO2 T00880078 10125 20084
KI69 201135Z AUTO 00000KT 10SM CLR 09/08 A3030 RMK AO2 T00850077
KI69 201114Z AUTO 00000KT 10SM CLR 09/08 A3029 RMK AO2 T00880080
KI69 201054Z AUTO 00000KT 10SM CLR 09/08 A3029 RMK AO2 T00910082
KI69 201035Z AUTO 00000KT 10SM CLR 09/08 A3029 RMK AO2 T00910082
KI69 201014Z AUTO 00000KT 5SM BR CLR 09/09 A3028 RMK AO2 T00930088
KI69 200954Z AUTO 00000KT 10SM CLR 10/08 A3028 RMK AO2 T00950084
KI69 200935Z AUTO 00000KT 10SM CLR 10/09 A3027 RMK AO2 T00960087
KI69 200914Z AUTO 00000KT 10SM CLR 10/09 A3026 RMK AO2 T00980086
KI69 200854Z AUTO 00000KT 10SM CLR 10/09 A3026 RMK AO2 T01020090
KI69 200835Z AUTO 00000KT 10SM CLR 10/09 A3026 RMK AO2 T01010089
KI69 200814Z AUTO 00000KT 10SM CLR 10/09 A3026 RMK AO2 T01000090
KI69 200754Z AUTO 00000KT 10SM CLR 11/09 A3026 RMK AO2 T01050093
KI69 200735Z AUTO 00000KT 10SM CLR 11/10 A3026 RMK AO2 T01050099
KI69 200714Z AUTO 00000KT 10SM CLR 11/10 A3026 RMK AO2 T01050095
KI69 200654Z AUTO 00000KT 10SM CLR 11/10 A3025 RMK AO2 T01060099
KI69 200635Z AUTO 00000KT 10SM CLR 11/10 A3026 RMK AO2 T01080097
KI69 200614Z AUTO 00000KT 10SM CLR 11/10 A3025 RMK AO2 T01100099
KI69 200554Z AUTO 00000KT 10SM CLR 13/10 A3025 RMK AO2 T01340096 10175 20116 402290073